Latest Weather Observations for Nuriootpa

IDS60901

Issued at 5:35 am CST Thursday 2 October 2014 (issued every 10 minutes, with the page automatically refreshed every 10 minutes)

About weather observations | Map of Adelaide area stations | Latest observations for Adelaide area | Other Formats
Station Details ID: 023373 Name: NURIOOTPA VITICULTURAL Lat: -34.48 Lon: 139.01 Height: 275.0 m
Data from the previous 72 hours. | See also: Recent months at Nuriootpa
Date/Time
CST
Tmp

°C
App
Tmp
°C
Dew
Point
°C
Rel
Hum
%
Delta-T

°C
Wind Press
QNH
hPa
Press
MSL
hPa
Rain
since
9 am
mm
Dir
 
Spd
km/h
Gust
km/h
Spd
kts
Gust
kts
02/05:30am 3.9 1.1 2.9 93 0.4 E 7 9 4 5 1027.4 1027.2 0.0
02/05:00am 3.9 1.2 2.7 92 0.5 E 6 7 3 4 1027.0 1026.8 0.0
02/04:30am 4.8 2.3 3.6 92 0.5 NE 6 7 3 4 1026.8 1026.6 0.0
02/04:00am 5.8 3.2 4.2 89 0.7 E 7 9 4 5 1026.7 1026.5 0.0
02/03:30am 5.0 2.3 3.6 91 0.6 ENE 7 9 4 5 1026.5 1026.3 0.0
02/03:00am 4.2 1.6 3.0 92 0.5 NNE 6 7 3 4 1026.7 1026.5 0.0
02/02:30am 4.9 3.1 3.7 92 0.5 ESE 2 9 1 5 1026.8 1026.6 0.0
02/02:00am 5.6 4.3 4.0 89 0.7 CALM 0 7 0 4 1027.2 1027.0 0.0
02/01:30am 5.3 3.5 3.6 89 0.7 ENE 2 7 1 4 1027.4 1027.2 0.0
02/01:00am 6.7 4.3 4.4 85 1.0 SSE 6 7 3 4 1027.6 1027.4 0.0
02/12:30am 7.4 5.4 4.4 81 1.3 SE 4 7 2 4 1027.7 1027.5 0.0
02/12:00am 6.5 5.2 3.9 83 1.1 N 0 0 0 0 1027.7 1027.5 0.0
 
Date/Time
CST
Tmp

°C
App
Tmp
°C
Dew
Point
°C
Rel
Hum
%
Delta-T

°C
Wind Press
QNH
hPa
Press
MSL
hPa
Rain
since
9 am
mm
Dir
 
Spd
km/h
Gust
km/h
Spd
kts
Gust
kts
01/11:30pm 6.9 4.4 3.9 81 1.3 SSE 6 9 3 5 1027.9 1027.7 0.0
01/11:00pm 7.4 4.7 3.9 78 1.5 S 7 11 4 6 1028.2 1028.0 0.0
01/10:30pm 7.6 4.6 3.9 77 1.6 SSE 9 13 5 7 1028.2 1028.0 0.0
01/10:00pm 7.7 5.7 4.3 79 1.5 E 4 6 2 3 1028.3 1028.1 0.0
01/09:30pm 8.6 6.3 4.6 76 1.8 S 6 11 3 6 1028.4 1028.2 0.0
01/09:00pm 9.1 6.2 4.6 73 2.0 SSE 9 13 5 7 1028.2 1028.0 0.0
01/08:30pm 9.7 6.4 4.6 70 2.3 SE 11 17 6 9 1028.1 1027.9 0.0
01/08:00pm 10.1 7.2 4.6 68 2.5 SSE 9 15 5 8 1027.8 1027.6 0.0
01/07:30pm 10.8 7.1 4.4 64 2.9 SE 13 19 7 10 1027.7 1027.5 0.0
01/07:00pm 11.9 8.6 4.7 61 3.3 S 11 17 6 9 1027.3 1027.1 0.0
01/06:30pm 12.6 9.5 5.6 62 3.3 SW 11 17 6 9 1026.9 1026.7 0.0
01/06:00pm 13.6 9.3 5.3 57 3.9 WSW 17 20 9 11 1026.7 1026.5 0.0
01/05:30pm 14.6 10.4 5.6 54 4.3 WSW 17 24 9 13 1026.6 1026.4 0.0
01/05:00pm 15.7 11.0 5.3 50 5.0 SW 19 24 10 13 1026.4 1026.2 0.0
01/04:30pm 16.0 11.2 4.9 47 5.3 WSW 19 24 10 13 1026.1 1025.8 0.0
01/04:00pm 17.1 12.3 4.8 44 5.9 WSW 19 28 10 15 1026.1 1025.8 0.0
01/03:30pm 17.2 12.7 4.4 42 6.1 W 17 22 9 12 1026.0 1025.7 0.0
01/03:00pm 17.2 13.3 3.2 39 6.5 SSW 13 22 7 12 1026.1 1025.8 0.0
01/02:30pm 16.9 12.1 2.4 37 6.6 SSW 17 22 9 12 1026.4 1026.2 0.0
01/02:00pm 17.0 13.8 3.2 39 6.4 S 9 19 5 10 1026.6 1026.4 0.0
01/01:30pm 16.9 13.4 3.4 40 6.3 S 11 20 6 11 1027.0 1026.8 0.0
01/01:00pm 15.7 11.7 2.7 41 5.9 SSE 13 19 7 10 1027.3 1027.1 0.0
01/12:30pm 16.1 12.2 3.3 42 5.9 S 13 22 7 12 1027.6 1027.4 0.0
01/12:00pm 15.1 11.6 3.3 45 5.4 SSW 11 24 6 13 1027.8 1027.6 0.0
01/11:30am 14.3 10.8 3.3 47 5.0 WSW 11 19 6 10 1028.0 1027.8 0.0
01/11:00am 14.9 10.9 3.0 44 5.4 SSE 13 20 7 11 1028.2 1028.0 0.0
01/10:30am 13.8 10.7 3.5 50 4.7 SSW 9 15 5 8 1028.1 1027.9 0.0
01/10:00am 12.7 7.8 4.2 56 3.9 SE 19 24 10 13 1028.2 1028.0 0.0
01/09:30am 12.0 7.6 2.7 53 4.1 SSW 15 22 8 12 1028.1 1027.9 0.0
01/09:00am 13.6 8.9 3.2 49 4.7 S 17 24 9 13 1027.9 1027.9 0.0
01/08:30am 12.1 6.8 1.9 49 4.4 SSW 19 26 10 14 1027.7 1027.7 0.0
01/08:00am 11.7 8.0 4.5 61 3.3 SSW 13 19 7 10 1027.4 1027.4 0.0
01/07:30am 10.0 8.5 5.2 72 2.2 E 2 9 1 5 1027.1 1027.1 0.0
01/07:00am 8.7 7.5 6.3 85 1.1 NNE 2 6 1 3 1026.9 1026.9 0.0
01/06:30am 7.3 6.3 5.8 90 0.7 CALM 0 0 0 0 1026.5 1026.5 0.0
01/06:00am 6.8 5.4 5.5 91 0.6 NE 2 7 1 4 1025.9 1025.9 0.0
01/05:30am 6.0 4.9 5.1 94 0.4 CALM 0 0 0 0 1025.3 1025.4 0.0
01/05:00am 6.1 3.6 5.0 93 0.5 NE 7 7 4 4 1024.7 1024.7 0.0
01/04:30am 6.8 5.8 5.7 93 0.5 CALM 0 0 0 0 1024.4 1024.4 0.0
01/04:00am 6.8 5.8 5.5 91 0.6 CALM 0 0 0 0 1024.1 1024.1 0.0
01/03:30am 6.6 5.6 5.5 93 0.5 CALM 0 0 0 0 1023.9 1023.9 0.0
01/03:00am 5.7 4.4 4.3 91 0.6 CALM 0 0 0 0 1023.6 1023.6 0.0
01/02:30am 6.5 5.4 5.1 91 0.6 CALM 0 6 0 3 1023.4 1023.4 0.0
01/02:00am 7.6 5.4 5.4 86 1.0 SW 6 7 3 4 1023.3 1023.3 0.0
01/01:30am 7.4 5.2 5.4 87 0.9 SW 6 6 3 3 1023.3 1023.3 0.0
01/01:00am 7.9 5.7 5.5 85 1.1 SW 6 7 3 4 1023.3 1023.3 0.0
01/12:30am 8.1 5.8 5.0 81 1.4 SW 6 9 3 5 1023.1 1023.1 0.0
01/12:00am 8.2 5.3 4.6 78 1.6 SW 9 11 5 6 1023.1 1023.1 0.0
 
Date/Time
CST
Tmp

°C
App
Tmp
°C
Dew
Point
°C
Rel
Hum
%
Delta-T

°C
Wind Press
QNH
hPa
Press
MSL
hPa
Rain
since
9 am
mm
Dir
 
Spd
km/h
Gust
km/h
Spd
kts
Gust
kts
30/11:30pm 8.8 5.5 4.3 73 2.0 SW 11 17 6 9 1022.7 1022.7 0.0
30/11:00pm 9.6 5.1 4.0 68 2.5 SW 17 28 9 15 1022.4 1022.4 0.0
30/10:30pm 10.1 5.6 6.3 77 1.8 SW 19 26 10 14 1022.1 1022.1 0.0
30/10:00pm 10.6 6.4 7.5 81 1.5 WSW 19 26 10 14 1021.9 1021.8 0.0
30/09:30pm 11.2 6.5 6.1 71 2.4 WSW 20 28 11 15 1021.5 1021.5 0.0
30/09:00pm 11.7 6.7 6.5 70 2.5 WSW 22 32 12 17 1021.2 1021.2 0.0
30/08:30pm 11.5 6.9 6.7 72 2.3 WSW 20 32 11 17 1020.9 1020.9 0.0
30/08:00pm 11.8 6.8 6.4 69 2.6 WSW 22 33 12 18 1020.6 1020.6 0.0
30/07:51pm 12.0 5.8 6.1 67 2.8 WSW 28 46 15 25 1020.4 1020.4 0.0
30/07:30pm 12.6 6.1 6.4 66 3.0 WSW 30 41 16 22 1020.0 1020.0 0.0
30/07:00pm 12.2 6.3 5.6 64 3.1 WSW 26 37 14 20 1019.4 1019.4 0.0
30/06:30pm 12.6 6.2 5.4 61 3.4 WSW 28 39 15 21 1018.7 1018.6 0.0
30/06:12pm 13.1 6.4 3.9 53 4.2 WSW 28 46 15 25 1018.2 1018.1 0.0
30/06:00pm 13.5 5.7 1.6 44 5.2 WSW 32 46 17 25 1017.9 1017.9 0.0
30/05:30pm 14.1 5.2 0.6 39 5.8 WSW 37 56 20 30 1017.1 1017.1 0.0
30/05:08pm 14.3 5.3 2.2 44 5.4 WSW 39 57 21 31 1016.8 1016.8 0.0
30/05:00pm 14.7 5.5 3.7 47 5.1 WSW 41 52 22 28 1016.7 1016.7 0.0
30/04:30pm 14.5 5.9 6.5 58 3.9 WSW 41 59 22 32 1016.6 1016.6 0.0
30/04:26pm 14.5 6.7 6.5 58 3.9 WSW 37 59 20 32 1016.7 1016.7 0.0
30/04:00pm 15.3 7.5 8.3 63 3.6 WSW 39 54 21 29 1016.2 1016.2 0.0
30/03:32pm 15.8 7.4 8.9 63 3.6 WSW 43 61 23 33 1015.7 1015.6 0.0
30/03:30pm 15.6 7.1 9.3 66 3.3 WSW 44 61 24 33 1015.6 1015.5 0.0
30/03:00pm 15.8 7.6 10.4 70 2.9 WSW 44 65 24 35 1015.2 1015.1 0.0
30/02:33pm 17.3 7.6 7.5 52 5.0 W 48 67 26 36 1014.9 1014.8 0.0
30/02:30pm 17.7 7.6 7.3 50 5.3 W 50 67 27 36 1014.9 1014.8 0.0
30/02:00pm 18.5 10.4 8.6 52 5.2 WSW 41 65 22 35 1014.7 1014.6 0.0
30/01:30pm 19.0 9.1 6.6 44 6.3 W 48 74 26 40 1014.6 1014.5 0.0
30/01:00pm 18.7 8.1 6.9 46 6.0 W 52 74 28 40 1014.5 1014.4 0.0
30/12:30pm 18.9 7.8 6.4 44 6.3 W 54 78 29 42 1014.3 1014.2 0.0
30/12:00pm 18.8 8.5 6.5 44 6.2 W 50 70 27 38 1013.9 1013.9 0.0
30/11:30am 19.8 9.5 6.7 42 6.7 W 50 82 27 44 1014.0 1014.0 0.0
30/11:01am 18.7 8.4 6.7 45 6.1 W 50 74 27 40 1013.5 1013.5 0.0
30/11:00am 18.9 8.7 6.9 45 6.1 W 50 65 27 35 1013.5 1013.5 0.0
30/10:30am 18.4 8.2 6.8 46 5.9 W 50 72 27 39 1013.6 1013.6 0.0
30/10:00am 18.9 8.5 5.9 42 6.5 W 50 69 27 37 1013.7 1013.7 0.0
30/09:30am 18.9 9.3 4.2 37 7.1 W 44 69 24 37 1013.8 1013.8 0.0
30/09:02am 18.5 7.6 3.6 37 7.1 W 50 70 27 38 1013.7 1013.7 0.0
30/09:00am 18.6 8.1 3.7 37 7.1 W 48 65 26 35 1013.7 1013.7 0.0
30/08:30am 18.4 8.9 4.0 38 6.9 W 43 61 23 33 1013.6 1013.6 0.0
30/08:00am 17.5 8.4 3.8 40 6.5 WNW 41 61 22 33 1013.1 1013.1 0.0
30/07:31am 17.0 8.9 3.0 39 6.5 WNW 35 54 19 29 1013.0 1013.0 0.0
30/07:30am 16.9 8.8 3.2 40 6.4 WNW 35 48 19 26 1013.1 1013.1 0.0
30/07:20am 16.7 9.0 3.5 41 6.2 WNW 33 59 18 32 1013.2 1013.2 0.0
30/07:00am 15.5 8.5 4.3 47 5.3 WNW 30 41 16 22 1013.1 1013.1 0.0
30/06:30am 14.5 8.3 4.2 50 4.8 WNW 26 37 14 20 1012.8 1012.8 0.0
30/06:00am 13.2 8.3 5.2 58 3.8 WNW 20 28 11 15 1012.6 1012.5 0.0
30/05:51am 12.6 7.8 5.4 61 3.4 WNW 20 33 11 18 1012.6 1012.5 0.0
30/05:30am 7.6 5.0 5.9 89 0.8 ENE 9 11 5 6 1012.4 1012.3 0.0
30/05:00am 6.6 3.9 5.5 93 0.5 ENE 9 11 5 6 1012.3 1012.2 0.0
30/04:30am 7.2 4.6 6.3 94 0.4 NE 9 9 5 5 1012.0 1011.9 0.0
30/04:00am 6.5 4.2 5.8 95 0.3 ENE 7 9 4 5 1012.2 1012.1 0.0
30/03:30am 7.1 4.6 6.5 96 0.3 NE 9 11 5 6 1012.1 1012.0 0.0
30/03:00am 7.2 5.1 6.6 96 0.3 ENE 7 9 4 5 1012.7 1012.6 0.0
30/02:30am 7.0 4.8 6.3 95 0.3 ENE 7 9 4 5 1013.1 1013.1 0.0
30/02:00am 7.3 5.4 6.7 96 0.3 NE 6 7 3 4 1013.4 1013.4 0.0
30/01:30am 7.7 5.7 7.1 96 0.3 ENE 7 9 4 5 1013.6 1013.6 0.0
30/01:00am 7.6 6.8 6.7 94 0.4 CALM 0 0 0 0 1014.3 1014.2 0.0
30/12:30am 8.0 7.2 6.7 91 0.6 CALM 0 0 0 0 1014.6 1014.5 0.0
30/12:00am 8.4 7.7 6.9 90 0.7 CALM 0 0 0 0 1014.8 1014.7 0.0
 
Date/Time
CST
Tmp

°C
App
Tmp
°C
Dew
Point
°C
Rel
Hum
%
Delta-T

°C
Wind Press
QNH
hPa
Press
MSL
hPa
Rain
since
9 am
mm
Dir
 
Spd
km/h
Gust
km/h
Spd
kts
Gust
kts
29/11:30pm 10.0 8.5 8.4 90 0.8 SSW 6 7 3 4 1015.1 1015.0 0.0
29/11:00pm 11.3 9.5 9.3 87 1.0 W 9 11 5 6 1015.2 1015.1 0.0
29/10:30pm 11.9 9.6 9.1 83 1.4 W 11 13 6 7 1015.4 1015.3 0.0
29/10:00pm 12.2 9.5 8.8 80 1.7 W 13 17 7 9 1015.5 1015.4 0.0
29/09:30pm 12.5 9.6 8.3 75 2.1 W 13 17 7 9 1015.4 1015.3 0.0
29/09:00pm 12.7 9.8 8.1 73 2.3 W 13 15 7 8 1015.3 1015.2 0.0
29/08:30pm 12.7 10.1 7.7 71 2.5 W 11 13 6 7 1015.2 1015.1 0.0
29/08:00pm 13.3 11.1 7.7 69 2.8 W 9 13 5 7 1014.8 1014.7 0.0
29/07:30pm 14.3 12.0 7.3 63 3.5 WSW 9 13 5 7 1014.4 1014.3 0.0
29/07:00pm 14.7 12.5 7.8 63 3.5 W 9 9 5 5 1013.9 1013.9 0.0
29/06:30pm 16.0 13.3 7.3 56 4.4 WSW 11 15 6 8 1013.7 1013.7 0.0
29/06:00pm 17.3 13.8 7.0 50 5.2 WSW 15 20 8 11 1013.7 1013.7 0.0
29/05:30pm 18.5 14.7 7.4 48 5.7 WSW 17 24 9 13 1013.6 1013.6 0.0
29/05:00pm 19.6 13.6 5.3 39 7.1 W 26 35 14 19 1013.3 1013.3 0.0
29/04:30pm 20.6 13.8 4.9 35 7.8 W 30 39 16 21 1012.9 1012.9 0.0
29/04:00pm 20.8 15.8 4.6 34 8.0 NW 20 26 11 14 1012.9 1012.9 0.0
29/03:30pm 21.0 16.0 4.6 34 8.1 W 20 26 11 14 1013.0 1013.0 0.0
29/03:00pm 21.0 16.1 5.2 35 7.9 NNW 20 26 11 14 1013.2 1013.2 0.0
29/02:30pm 20.7 15.6 5.9 38 7.5 NW 22 26 12 14 1013.4 1013.4 0.0
29/02:00pm 20.6 16.2 6.5 40 7.2 WNW 19 32 10 17 1013.7 1013.7 0.0
29/01:30pm 19.8 15.3 6.9 43 6.6 W 20 33 11 18 1014.1 1014.1 0.0
29/01:00pm 19.2 14.8 7.4 46 6.1 WNW 20 26 11 14 1014.5 1014.4 0.0
29/12:30pm 18.8 14.3 6.8 45 6.1 WNW 20 35 11 19 1015.0 1014.9 0.0
29/12:00pm 18.9 14.6 7.2 46 6.0 NW 19 28 10 15 1015.4 1015.3 0.0
29/11:30am 18.9 14.0 6.9 45 6.1 W 22 28 12 15 1015.7 1015.6 0.0
29/11:00am 17.5 13.1 7.3 51 5.2 WNW 20 28 11 15 1016.1 1016.1 0.0
29/10:30am 16.9 12.7 7.4 53 4.8 WNW 19 28 10 15 1016.3 1016.3 0.0
29/10:00am 17.0 13.0 8.3 56 4.5 WNW 19 28 10 15 1016.7 1016.7 0.0
29/09:30am 15.1 11.2 8.7 65 3.3 W 19 28 10 15 1016.8 1016.8 0.0
29/09:00am 14.8 11.6 10.1 73 2.5 WNW 17 24 9 13 1016.8 1016.8 0.0
29/08:30am 13.7 10.1 9.7 77 2.1 W 19 26 10 14 1016.7 1016.7 0.0
29/08:00am 12.9 9.8 10.2 84 1.4 W 17 24 9 13 1016.3 1016.3 0.0
29/07:30am 13.0 9.4 10.7 86 1.2 W 20 28 11 15 1015.7 1015.6 0.0
29/07:00am 12.2 10.3 10.5 89 0.9 WNW 11 15 6 8 1015.6 1015.5 0.0
29/06:30am 11.4 8.3 10.2 92 0.6 W 17 26 9 14 1015.3 1015.2 0.0
29/06:00am 11.5 7.0 10.1 91 0.7 W 24 33 13 18 1014.9 1014.8 0.0

Latest Capital City Observations: Canberra | Sydney | Melbourne | Brisbane | Adelaide | Perth | Hobart | Darwin

Other Formats:

Comma delimited format used in spreadsheet applications
http://www.bom.gov.au/fwo/IDS60901/IDS60901.94681.axf

JavaScript Object Notation format (JSON) in row-major order
http://www.bom.gov.au/fwo/IDS60901/IDS60901.94681.json